sensor_id;sensor_type;location;lat;lon;timestamp;pressure;altitude;pressure_sealevel;temperature;humidity
39267;BME280;24967;51.154;13.812;2023-03-01T00:01:21;100855.53;;;-1.46;68.63
39267;BME280;24967;51.154;13.812;2023-03-01T00:03:51;100860.72;;;-1.45;68.89
39267;BME280;24967;51.154;13.812;2023-03-01T00:06:22;100864.16;;;-1.44;68.52
39267;BME280;24967;51.154;13.812;2023-03-01T00:08:51;100864.13;;;-1.43;68.74
39267;BME280;24967;51.154;13.812;2023-03-01T00:11:21;100856.28;;;-1.43;68.21
39267;BME280;24967;51.154;13.812;2023-03-01T00:13:53;100851.97;;;-1.44;68.30
39267;BME280;24967;51.154;13.812;2023-03-01T00:16:26;100840.72;;;-1.46;68.30
39267;BME280;24967;51.154;13.812;2023-03-01T00:18:55;100852.91;;;-1.46;68.37
39267;BME280;24967;51.154;13.812;2023-03-01T00:21:25;100848.72;;;-1.52;68.57
39267;BME280;24967;51.154;13.812;2023-03-01T00:23:54;100855.78;;;-1.55;68.02
39267;BME280;24967;51.154;13.812;2023-03-01T00:26:25;100859.47;;;-1.64;68.44
39267;BME280;24967;51.154;13.812;2023-03-01T00:28:54;100857.72;;;-1.64;68.19
39267;BME280;24967;51.154;13.812;2023-03-01T00:31:28;100849.19;;;-1.69;68.56
39267;BME280;24967;51.154;13.812;2023-03-01T00:34:01;100844.38;;;-1.84;68.63
39267;BME280;24967;51.154;13.812;2023-03-01T00:36:29;100837.19;;;-1.76;68.48
39267;BME280;24967;51.154;13.812;2023-03-01T00:38:58;100833.91;;;-1.82;68.99
39267;BME280;24967;51.154;13.812;2023-03-01T00:41:27;100845.19;;;-1.82;69.07
39267;BME280;24967;51.154;13.812;2023-03-01T00:43:55;100841.72;;;-1.82;69.07
39267;BME280;24967;51.154;13.812;2023-03-01T00:46:26;100845.56;;;-1.96;68.79
39267;BME280;24967;51.154;13.812;2023-03-01T00:48:56;100847.88;;;-1.85;68.88
39267;BME280;24967;51.154;13.812;2023-03-01T00:51:26;100840.94;;;-1.85;68.77
39267;BME280;24967;51.154;13.812;2023-03-01T00:53:56;100832.44;;;-1.93;68.42
39267;BME280;24967;51.154;13.812;2023-03-01T00:56:26;100836.88;;;-1.96;68.93
39267;BME280;24967;51.154;13.812;2023-03-01T00:58:55;100839.66;;;-2.02;68.95
39267;BME280;24967;51.154;13.812;2023-03-01T01:01:28;100838.81;;;-2.04;68.96
39267;BME280;24967;51.154;13.812;2023-03-01T01:03:59;100834.59;;;-2.09;68.76
39267;BME280;24967;51.154;13.812;2023-03-01T01:06:29;100832.00;;;-2.09;68.46
39267;BME280;24967;51.154;13.812;2023-03-01T01:08:58;100832.94;;;-2.13;68.72
39267;BME280;24967;51.154;13.812;2023-03-01T01:11:29;100829.38;;;-2.09;68.50
39267;BME280;24967;51.154;13.812;2023-03-01T01:13:58;100825.94;;;-2.11;69.02
39267;BME280;24967;51.154;13.812;2023-03-01T01:16:29;100830.25;;;-2.10;69.08
39267;BME280;24967;51.154;13.812;2023-03-01T01:18:59;100827.72;;;-2.11;68.95
39267;BME280;24967;51.154;13.812;2023-03-01T01:21:29;100831.25;;;-2.15;68.56
39267;BME280;24967;51.154;13.812;2023-03-01T01:23:57;100821.72;;;-2.15;68.43
39267;BME280;24967;51.154;13.812;2023-03-01T01:26:27;100819.13;;;-2.15;68.45
39267;BME280;24967;51.154;13.812;2023-03-01T01:28:57;100816.59;;;-2.18;68.33
39267;BME280;24967;51.154;13.812;2023-03-01T01:31:29;100804.59;;;-2.25;68.46
39267;BME280;24967;51.154;13.812;2023-03-01T01:33:59;100806.72;;;-2.41;68.56
39267;BME280;24967;51.154;13.812;2023-03-01T01:36:28;100811.13;;;-2.43;68.91
39267;BME280;24967;51.154;13.812;2023-03-01T01:38:56;100811.09;;;-2.41;68.54
39267;BME280;24967;51.154;13.812;2023-03-01T01:41:24;100805.91;;;-2.43;68.94
39267;BME280;24967;51.154;13.812;2023-03-01T01:44:10;100821.53;;;-2.43;68.86
39267;BME280;24967;51.154;13.812;2023-03-01T01:46:43;100807.72;;;-2.46;68.70
39267;BME280;24967;51.154;13.812;2023-03-01T01:49:19;100813.88;;;-2.49;68.82
39267;BME280;24967;51.154;13.812;2023-03-01T01:51:55;100818.44;;;-2.57;68.74
39267;BME280;24967;51.154;13.812;2023-03-01T01:54:27;100809.72;;;-2.58;68.59
39267;BME280;24967;51.154;13.812;2023-03-01T01:56:59;100808.84;;;-2.57;68.77
39267;BME280;24967;51.154;13.812;2023-03-01T01:59:29;100791.41;;;-2.53;68.94
39267;BME280;24967;51.154;13.812;2023-03-01T02:02:02;100789.88;;;-2.62;69.02
39267;BME280;24967;51.154;13.812;2023-03-01T02:04:33;100790.66;;;-2.58;68.84
39267;BME280;24967;51.154;13.812;2023-03-01T02:07:05;100791.34;;;-2.50;68.89
39267;BME280;24967;51.154;13.812;2023-03-01T02:09:36;100789.63;;;-2.51;68.46
39267;BME280;24967;51.154;13.812;2023-03-01T02:12:06;100793.16;;;-2.54;68.85
39267;BME280;24967;51.154;13.812;2023-03-01T02:14:33;100795.63;;;-2.49;68.15
39267;BME280;24967;51.154;13.812;2023-03-01T02:17:01;100786.97;;;-2.49;68.62
39267;BME280;24967;51.154;13.812;2023-03-01T02:19:41;100778.38;;;-2.53;68.22
39267;BME280;24967;51.154;13.812;2023-03-01T02:22:18;100778.47;;;-2.58;68.11
39267;BME280;24967;51.154;13.812;2023-03-01T02:24:57;100779.44;;;-2.60;68.32
39267;BME280;24967;51.154;13.812;2023-03-01T02:27:35;100777.69;;;-2.60;68.41
39267;BME280;24967;51.154;13.812;2023-03-01T02:30:09;100767.22;;;-2.58;68.09
39267;BME280;24967;51.154;13.812;2023-03-01T02:32:39;100766.53;;;-2.65;67.72
39267;BME280;24967;51.154;13.812;2023-03-01T02:35:09;100759.94;;;-2.80;68.12
39267;BME280;24967;51.154;13.812;2023-03-01T02:37:39;100765.97;;;-2.78;68.41
39267;BME280;24967;51.154;13.812;2023-03-01T02:40:12;100763.25;;;-2.73;68.19
39267;BME280;24967;51.154;13.812;2023-03-01T02:42:49;100758.88;;;-2.72;68.68
39267;BME280;24967;51.154;13.812;2023-03-01T02:45:24;100752.81;;;-2.71;68.42
39267;BME280;24967;51.154;13.812;2023-03-01T02:47:57;100760.75;;;-2.78;68.12
39267;BME280;24967;51.154;13.812;2023-03-01T02:50:46;100756.47;;;-2.80;68.65
39267;BME280;24967;51.154;13.812;2023-03-01T02:53:23;100763.53;;;-2.85;68.15
39267;BME280;24967;51.154;13.812;2023-03-01T02:55:56;100766.25;;;-2.90;68.53
39267;BME280;24967;51.154;13.812;2023-03-01T02:58:25;100769.91;;;-2.98;68.62
39267;BME280;24967;51.154;13.812;2023-03-01T03:00:54;100764.88;;;-3.06;68.58
39267;BME280;24967;51.154;13.812;2023-03-01T03:03:22;100768.31;;;-3.04;68.70
39267;BME280;24967;51.154;13.812;2023-03-01T03:05:51;100769.22;;;-3.05;68.73
39267;BME280;24967;51.154;13.812;2023-03-01T03:08:20;100764.41;;;-3.24;68.38
39267;BME280;24967;51.154;13.812;2023-03-01T03:10:50;100749.53;;;-3.17;68.54
39267;BME280;24967;51.154;13.812;2023-03-01T03:13:19;100759.88;;;-3.15;68.43
39267;BME280;24967;51.154;13.812;2023-03-01T03:15:47;100747.00;;;-3.20;68.39
39267;BME280;24967;51.154;13.812;2023-03-01T03:18:17;100752.19;;;-3.20;68.02
39267;BME280;24967;51.154;13.812;2023-03-01T03:20:45;100751.38;;;-3.22;68.03
39267;BME280;24967;51.154;13.812;2023-03-01T03:23:18;100756.56;;;-3.20;67.88
39267;BME280;24967;51.154;13.812;2023-03-01T03:25:48;100755.72;;;-3.24;68.24
39267;BME280;24967;51.154;13.812;2023-03-01T03:28:15;100744.47;;;-3.23;68.25
39267;BME280;24967;51.154;13.812;2023-03-01T03:30:43;100750.47;;;-3.21;68.55
39267;BME280;24967;51.154;13.812;2023-03-01T03:33:15;100747.91;;;-3.23;68.57
39267;BME280;24967;51.154;13.812;2023-03-01T03:35:45;100749.66;;;-3.23;68.63
39267;BME280;24967;51.154;13.812;2023-03-01T03:38:14;100740.94;;;-3.20;68.39
39267;BME280;24967;51.154;13.812;2023-03-01T03:40:47;100736.59;;;-3.20;68.49
39267;BME280;24967;51.154;13.812;2023-03-01T03:43:17;100738.50;;;-3.28;68.28
39267;BME280;24967;51.154;13.812;2023-03-01T03:45:46;100735.97;;;-3.31;68.49
39267;BME280;24967;51.154;13.812;2023-03-01T03:48:17;100736.78;;;-3.29;68.49
39267;BME280;24967;51.154;13.812;2023-03-01T03:50:48;100732.44;;;-3.29;68.40
39267;BME280;24967;51.154;13.812;2023-03-01T03:53:15;100737.72;;;-3.33;68.59
39267;BME280;24967;51.154;13.812;2023-03-01T03:55:41;100736.94;;;-3.35;68.44
39267;BME280;24967;51.154;13.812;2023-03-01T03:58:10;100741.22;;;-3.34;68.54
39267;BME280;24967;51.154;13.812;2023-03-01T04:00:40;100746.50;;;-3.37;68.39
39267;BME280;24967;51.154;13.812;2023-03-01T04:03:10;100742.22;;;-3.40;68.81
39267;BME280;24967;51.154;13.812;2023-03-01T04:05:42;100744.66;;;-3.32;68.70
39267;BME280;24967;51.154;13.812;2023-03-01T04:08:10;100752.47;;;-3.32;68.33
39267;BME280;24967;51.154;13.812;2023-03-01T04:10:40;100750.84;;;-3.38;68.29
39267;BME280;24967;51.154;13.812;2023-03-01T04:13:11;100753.53;;;-3.42;68.33
39267;BME280;24967;51.154;13.812;2023-03-01T04:15:41;100757.06;;;-3.45;68.54
39267;BME280;24967;51.154;13.812;2023-03-01T04:18:12;100746.84;;;-3.53;68.70
39267;BME280;24967;51.154;13.812;2023-03-01T04:20:46;100745.16;;;-3.55;68.67
39267;BME280;24967;51.154;13.812;2023-03-01T04:23:19;100766.00;;;-3.57;68.96
39267;BME280;24967;51.154;13.812;2023-03-01T04:25:48;100741.88;;;-3.65;68.74
39267;BME280;24967;51.154;13.812;2023-03-01T04:28:21;100747.94;;;-3.64;68.60
39267;BME280;24967;51.154;13.812;2023-03-01T04:30:50;100746.13;;;-3.61;68.51
39267;BME280;24967;51.154;13.812;2023-03-01T04:33:18;100736.69;;;-3.65;68.37
39267;BME280;24967;51.154;13.812;2023-03-01T04:35:47;100728.00;;;-3.64;68.63
39267;BME280;24967;51.154;13.812;2023-03-01T04:38:16;100734.94;;;-3.63;68.50
39267;BME280;24967;51.154;13.812;2023-03-01T04:40:47;100740.94;;;-3.61;68.58
39267;BME280;24967;51.154;13.812;2023-03-01T04:43:16;100732.31;;;-3.63;68.35
39267;BME280;24967;51.154;13.812;2023-03-01T04:45:45;100734.03;;;-3.63;68.33
39267;BME280;24967;51.154;13.812;2023-03-01T04:48:14;100731.38;;;-3.60;68.57
39267;BME280;24967;51.154;13.812;2023-03-01T04:50:42;100735.72;;;-3.59;68.38
39267;BME280;24967;51.154;13.812;2023-03-01T04:53:11;100737.47;;;-3.60;68.33
39267;BME280;24967;51.154;13.812;2023-03-01T04:55:39;100738.94;;;-3.90;68.31
39267;BME280;24967;51.154;13.812;2023-03-01T04:58:08;100736.09;;;-3.78;67.87
39267;BME280;24967;51.154;13.812;2023-03-01T05:00:37;100736.16;;;-3.81;68.19
39267;BME280;24967;51.154;13.812;2023-03-01T05:03:04;100739.56;;;-3.79;68.06
39267;BME280;24967;51.154;13.812;2023-03-01T05:05:34;100737.78;;;-3.77;67.74
39267;BME280;24967;51.154;13.812;2023-03-01T05:08:06;100734.28;;;-3.76;67.81
39267;BME280;24967;51.154;13.812;2023-03-01T05:10:36;100729.16;;;-3.79;67.88
39267;BME280;24967;51.154;13.812;2023-03-01T05:13:07;100738.72;;;-3.79;67.57
39267;BME280;24967;51.154;13.812;2023-03-01T05:15:39;100725.63;;;-3.75;67.66
39267;BME280;24967;51.154;13.812;2023-03-01T05:18:10;100730.00;;;-3.78;67.53
39267;BME280;24967;51.154;13.812;2023-03-01T05:20:38;100730.97;;;-3.82;67.74
39267;BME280;24967;51.154;13.812;2023-03-01T05:23:09;100736.22;;;-3.85;67.73
39267;BME280;24967;51.154;13.812;2023-03-01T05:25:38;100737.09;;;-3.85;67.62
39267;BME280;24967;51.154;13.812;2023-03-01T05:28:11;100731.03;;;-3.84;67.79
39267;BME280;24967;51.154;13.812;2023-03-01T05:30:39;100724.09;;;-3.85;67.60
39267;BME280;24967;51.154;13.812;2023-03-01T05:33:09;100718.09;;;-3.87;67.50
39267;BME280;24967;51.154;13.812;2023-03-01T05:35:40;100722.41;;;-3.87;67.65
39267;BME280;24967;51.154;13.812;2023-03-01T05:38:09;100713.81;;;-3.89;67.73
39267;BME280;24967;51.154;13.812;2023-03-01T05:40:40;100724.25;;;-3.93;67.69
39267;BME280;24967;51.154;13.812;2023-03-01T05:43:07;100726.06;;;-3.96;67.81
39267;BME280;24967;51.154;13.812;2023-03-01T05:45:36;100727.84;;;-4.00;67.56
39267;BME280;24967;51.154;13.812;2023-03-01T05:48:06;100727.03;;;-4.02;67.56
39267;BME280;24967;51.154;13.812;2023-03-01T05:50:36;100722.66;;;-4.00;67.86
39267;BME280;24967;51.154;13.812;2023-03-01T05:53:06;100724.44;;;-4.02;67.76
39267;BME280;24967;51.154;13.812;2023-03-01T05:55:35;100725.25;;;-4.00;67.68
39267;BME280;24967;51.154;13.812;2023-03-01T05:58:06;100722.69;;;-4.01;67.75
39267;BME280;24967;51.154;13.812;2023-03-01T06:00:34;100729.81;;;-4.12;67.53
39267;BME280;24967;51.154;13.812;2023-03-01T06:03:09;100714.34;;;-4.19;67.99
39267;BME280;24967;51.154;13.812;2023-03-01T06:05:38;100728.28;;;-4.23;68.40
39267;BME280;24967;51.154;13.812;2023-03-01T06:08:08;100735.13;;;-4.17;68.45
39267;BME280;24967;51.154;13.812;2023-03-01T06:10:37;100740.31;;;-4.19;68.46
39267;BME280;24967;51.154;13.812;2023-03-01T06:13:09;100737.66;;;-4.14;68.50
39267;BME280;24967;51.154;13.812;2023-03-01T06:15:37;100733.34;;;-4.15;68.55
39267;BME280;24967;51.154;13.812;2023-03-01T06:18:06;100743.66;;;-4.12;68.18
39267;BME280;24967;51.154;13.812;2023-03-01T06:20:34;100742.75;;;-4.09;68.77
39267;BME280;24967;51.154;13.812;2023-03-01T06:23:03;100740.16;;;-4.09;69.05
39267;BME280;24967;51.154;13.812;2023-03-01T06:25:30;100740.09;;;-4.05;69.11
39267;BME280;24967;51.154;13.812;2023-03-01T06:28:00;100738.22;;;-3.98;69.57
39267;BME280;24967;51.154;13.812;2023-03-01T06:30:29;100735.56;;;-3.97;69.38
39267;BME280;24967;51.154;13.812;2023-03-01T06:32:56;100737.25;;;-3.94;69.36
39267;BME280;24967;51.154;13.812;2023-03-01T06:35:27;100736.34;;;-3.90;69.25
39267;BME280;24967;51.154;13.812;2023-03-01T06:37:58;100739.69;;;-3.85;69.40
39267;BME280;24967;51.154;13.812;2023-03-01T06:40:28;100746.59;;;-3.84;69.54
39267;BME280;24967;51.154;13.812;2023-03-01T06:42:57;100747.34;;;-3.79;69.49
39267;BME280;24967;51.154;13.812;2023-03-01T06:45:24;100742.16;;;-3.79;70.13
39267;BME280;24967;51.154;13.812;2023-03-01T06:48:02;100758.50;;;-3.72;70.16
39267;BME280;24967;51.154;13.812;2023-03-01T06:50:30;100725.75;;;-3.81;70.55
39267;BME280;24967;51.154;13.812;2023-03-01T06:52:56;100732.53;;;-3.72;70.74
39267;BME280;24967;51.154;13.812;2023-03-01T06:55:23;100734.84;;;-3.60;70.49
39267;BME280;24967;51.154;13.812;2023-03-01T06:57:54;100737.53;;;-3.64;70.99
39267;BME280;24967;51.154;13.812;2023-03-01T07:00:24;100742.59;;;-3.57;70.71
39267;BME280;24967;51.154;13.812;2023-03-01T07:02:55;100738.13;;;-3.50;70.74
39267;BME280;24967;51.154;13.812;2023-03-01T07:05:26;100733.59;;;-3.42;70.91
39267;BME280;24967;51.154;13.812;2023-03-01T07:07:54;100739.09;;;-3.56;71.62
39267;BME280;24967;51.154;13.812;2023-03-01T07:10:22;100741.56;;;-3.50;71.97
39267;BME280;24967;51.154;13.812;2023-03-01T07:13:01;100727.72;;;-3.52;72.79
39267;BME280;24967;51.154;13.812;2023-03-01T07:15:33;100731.13;;;-3.48;73.15
39267;BME280;24967;51.154;13.812;2023-03-01T07:18:03;100735.41;;;-3.46;73.71
39267;BME280;24967;51.154;13.812;2023-03-01T07:20:31;100733.38;;;-3.31;73.81
39267;BME280;24967;51.154;13.812;2023-03-01T07:22:59;100717.97;;;-3.40;74.61
39267;BME280;24967;51.154;13.812;2023-03-01T07:25:26;100722.81;;;-3.24;74.38
39267;BME280;24967;51.154;13.812;2023-03-01T07:27:53;100727.97;;;-3.22;75.42
39267;BME280;24967;51.154;13.812;2023-03-01T07:30:22;100725.34;;;-3.20;76.16
39267;BME280;24967;51.154;13.812;2023-03-01T07:32:52;100724.72;;;-2.94;75.38
39267;BME280;24967;51.154;13.812;2023-03-01T07:35:23;100719.41;;;-2.90;75.55
39267;BME280;24967;51.154;13.812;2023-03-01T07:37:53;100720.06;;;-2.82;76.12
39267;BME280;24967;51.154;13.812;2023-03-01T07:40:21;100714.75;;;-2.77;76.27
39267;BME280;24967;51.154;13.812;2023-03-01T07:42:54;100720.75;;;-2.73;76.66
39267;BME280;24967;51.154;13.812;2023-03-01T07:45:23;100715.28;;;-2.63;77.49
39267;BME280;24967;51.154;13.812;2023-03-01T07:47:52;100709.06;;;-2.57;77.26
39267;BME280;24967;51.154;13.812;2023-03-01T07:50:20;100708.16;;;-2.56;78.12
39267;BME280;24967;51.154;13.812;2023-03-01T07:52:50;100707.09;;;-2.15;77.11
39267;BME280;24967;51.154;13.812;2023-03-01T07:55:18;100710.81;;;-2.25;77.39
39267;BME280;24967;51.154;13.812;2023-03-01T07:57:46;100713.31;;;-2.20;78.41
39267;BME280;24967;51.154;13.812;2023-03-01T08:00:15;100707.16;;;-2.18;78.78
39267;BME280;24967;51.154;13.812;2023-03-01T08:02:43;100707.16;;;-2.18;79.41
39267;BME280;24967;51.154;13.812;2023-03-01T08:05:12;100713.84;;;-2.09;79.94
39267;BME280;24967;51.154;13.812;2023-03-01T08:07:41;100711.06;;;-2.01;81.00
39267;BME280;24967;51.154;13.812;2023-03-01T08:10:11;100711.66;;;-1.92;81.40
39267;BME280;24967;51.154;13.812;2023-03-01T08:12:40;100711.19;;;-1.76;81.54
39267;BME280;24967;51.154;13.812;2023-03-01T08:15:10;100704.84;;;-1.66;81.17
39267;BME280;24967;51.154;13.812;2023-03-01T08:17:38;100709.81;;;-1.58;81.33
39267;BME280;24967;51.154;13.812;2023-03-01T08:20:07;100698.06;;;-1.44;81.02
39267;BME280;24967;51.154;13.812;2023-03-01T08:22:38;100699.41;;;-1.30;80.85
39267;BME280;24967;51.154;13.812;2023-03-01T08:25:05;100692.94;;;-1.19;80.99
39267;BME280;24967;51.154;13.812;2023-03-01T08:27:35;100696.91;;;-1.05;80.68
39267;BME280;24967;51.154;13.812;2023-03-01T08:30:04;100685.22;;;-0.94;80.63
39267;BME280;24967;51.154;13.812;2023-03-01T08:32:36;100681.63;;;-0.91;80.70
39267;BME280;24967;51.154;13.812;2023-03-01T08:35:04;100678.91;;;-0.88;80.62
39267;BME280;24967;51.154;13.812;2023-03-01T08:37:32;100676.38;;;-0.63;81.05
39267;BME280;24967;51.154;13.812;2023-03-01T08:39:59;100673.13;;;-0.44;80.86
39267;BME280;24967;51.154;13.812;2023-03-01T08:42:26;100675.09;;;-0.26;80.67
39267;BME280;24967;51.154;13.812;2023-03-01T08:44:54;100683.63;;;-0.21;80.46
39267;BME280;24967;51.154;13.812;2023-03-01T08:47:22;100684.69;;;-0.03;80.50
39267;BME280;24967;51.154;13.812;2023-03-01T08:49:49;100690.03;;;-0.06;79.40
39267;BME280;24967;51.154;13.812;2023-03-01T08:52:16;100690.13;;;0.16;79.59
39267;BME280;24967;51.154;13.812;2023-03-01T08:54:44;100688.94;;;0.25;79.18
39267;BME280;24967;51.154;13.812;2023-03-01T08:57:10;100685.91;;;0.35;78.63
39267;BME280;24967;51.154;13.812;2023-03-01T08:59:38;100687.81;;;0.54;77.97
39267;BME280;24967;51.154;13.812;2023-03-01T09:02:11;100672.38;;;0.69;76.97
39267;BME280;24967;51.154;13.812;2023-03-01T09:04:38;100672.94;;;0.78;76.35
39267;BME280;24967;51.154;13.812;2023-03-01T09:07:05;100670.53;;;0.94;76.12
39267;BME280;24967;51.154;13.812;2023-03-01T09:09:32;100668.00;;;0.92;75.13
39267;BME280;24967;51.154;13.812;2023-03-01T09:11:59;100660.38;;;1.08;75.10
39267;BME280;24967;51.154;13.812;2023-03-01T09:14:26;100657.00;;;1.26;75.84
39267;BME280;24967;51.154;13.812;2023-03-01T09:16:53;100655.63;;;1.58;76.23
39267;BME280;24967;51.154;13.812;2023-03-01T09:19:22;100650.41;;;1.98;77.47
39267;BME280;24967;51.154;13.812;2023-03-01T09:21:49;100654.59;;;2.21;76.56
39267;BME280;24967;51.154;13.812;2023-03-01T09:24:20;100647.94;;;2.51;77.48
39267;BME280;24967;51.154;13.812;2023-03-01T09:26:48;100645.63;;;2.63;73.37
39267;BME280;24967;51.154;13.812;2023-03-01T09:29:15;100648.34;;;2.61;71.96
39267;BME280;24967;51.154;13.812;2023-03-01T09:31:43;100642.16;;;2.62;71.21
39267;BME280;24967;51.154;13.812;2023-03-01T09:34:10;100632.91;;;2.91;72.58
39267;BME280;24967;51.154;13.812;2023-03-01T09:36:40;100630.19;;;3.10;73.66
39267;BME280;24967;51.154;13.812;2023-03-01T09:39:06;100630.91;;;3.31;74.02
39267;BME280;24967;51.154;13.812;2023-03-01T09:41:44;100629.81;;;3.35;68.39
39267;BME280;24967;51.154;13.812;2023-03-01T09:44:19;100626.66;;;3.46;68.89
39267;BME280;24967;51.154;13.812;2023-03-01T09:46:48;100638.47;;;3.55;66.82
39267;BME280;24967;51.154;13.812;2023-03-01T09:49:18;100636.22;;;3.47;63.20
39267;BME280;24967;51.154;13.812;2023-03-01T09:51:54;100630.44;;;3.40;63.57
39267;BME280;24967;51.154;13.812;2023-03-01T09:54:22;100632.91;;;3.61;64.91
39267;BME280;24967;51.154;13.812;2023-03-01T09:56:59;100632.47;;;3.68;62.81
39267;BME280;24967;51.154;13.812;2023-03-01T09:59:30;100630.69;;;3.69;60.90
39267;BME280;24967;51.154;13.812;2023-03-01T10:02:07;100627.56;;;3.96;62.71
39267;BME280;24967;51.154;13.812;2023-03-01T10:04:44;100629.13;;;4.31;63.03
39267;BME280;24967;51.154;13.812;2023-03-01T10:07:16;100632.72;;;4.46;61.16
39267;BME280;24967;51.154;13.812;2023-03-01T10:09:47;100635.41;;;4.45;61.00
39267;BME280;24967;51.154;13.812;2023-03-01T10:12:17;100630.06;;;4.62;63.75
39267;BME280;24967;51.154;13.812;2023-03-01T10:14:53;100626.59;;;4.62;60.55
39267;BME280;24967;51.154;13.812;2023-03-01T10:17:27;100634.41;;;4.63;57.96
39267;BME280;24967;51.154;13.812;2023-03-01T10:20:11;100636.25;;;4.77;56.83
39267;BME280;24967;51.154;13.812;2023-03-01T10:22:42;100631.81;;;4.77;56.74
39267;BME280;24967;51.154;13.812;2023-03-01T10:25:14;100636.31;;;4.91;58.44
39267;BME280;24967;51.154;13.812;2023-03-01T10:27:46;100631.50;;;5.14;57.23
39267;BME280;24967;51.154;13.812;2023-03-01T10:30:20;100634.50;;;5.08;55.74
39267;BME280;24967;51.154;13.812;2023-03-01T10:32:49;100629.53;;;5.17;56.47
39267;BME280;24967;51.154;13.812;2023-03-01T10:35:19;100623.78;;;5.11;55.02
39267;BME280;24967;51.154;13.812;2023-03-01T10:38:03;100621.38;;;5.22;56.64
39267;BME280;24967;51.154;13.812;2023-03-01T10:40:31;100615.47;;;5.47;59.08
39267;BME280;24967;51.154;13.812;2023-03-01T10:43:00;100611.84;;;5.64;56.32
39267;BME280;24967;51.154;13.812;2023-03-01T10:45:34;100620.03;;;5.45;54.54
39267;BME280;24967;51.154;13.812;2023-03-01T10:48:10;100616.84;;;5.83;55.11
39267;BME280;24967;51.154;13.812;2023-03-01T10:50:41;100604.50;;;5.83;55.75
39267;BME280;24967;51.154;13.812;2023-03-01T10:53:26;100606.47;;;5.80;55.05
39267;BME280;24967;51.154;13.812;2023-03-01T10:56:00;100601.66;;;5.86;54.27
39267;BME280;24967;51.154;13.812;2023-03-01T10:58:29;100600.47;;;6.06;54.79
39267;BME280;24967;51.154;13.812;2023-03-01T11:00:58;100598.00;;;6.17;54.59
39267;BME280;24967;51.154;13.812;2023-03-01T11:03:27;100599.13;;;6.28;53.75
39267;BME280;24967;51.154;13.812;2023-03-01T11:05:57;100594.09;;;6.23;53.00
39267;BME280;24967;51.154;13.812;2023-03-01T11:08:41;100597.97;;;6.32;52.43
39267;BME280;24967;51.154;13.812;2023-03-01T11:11:22;100592.09;;;6.41;50.99
39267;BME280;24967;51.154;13.812;2023-03-01T11:13:55;100591.63;;;6.49;50.96
39267;BME280;24967;51.154;13.812;2023-03-01T11:16:29;100587.66;;;6.14;51.24
39267;BME280;24967;51.154;13.812;2023-03-01T11:19:00;100592.94;;;6.14;53.29
39267;BME280;24967;51.154;13.812;2023-03-01T11:21:31;100594.81;;;5.98;53.17
39267;BME280;24967;51.154;13.812;2023-03-01T11:24:09;100594.81;;;6.12;52.63
39267;BME280;24967;51.154;13.812;2023-03-01T11:26:40;100589.34;;;6.15;52.98
39267;BME280;24967;51.154;13.812;2023-03-01T11:29:15;100588.56;;;6.13;52.47
39267;BME280;24967;51.154;13.812;2023-03-01T11:31:45;100591.84;;;6.17;53.17
39267;BME280;24967;51.154;13.812;2023-03-01T11:34:16;100584.81;;;6.17;52.46
39267;BME280;24967;51.154;13.812;2023-03-01T11:36:55;100592.94;;;6.14;53.04
39267;BME280;24967;51.154;13.812;2023-03-01T11:39:31;100590.38;;;5.99;51.98
39267;BME280;24967;51.154;13.812;2023-03-01T11:42:03;100581.22;;;6.04;51.37
39267;BME280;24967;51.154;13.812;2023-03-01T11:44:36;100585.56;;;5.91;51.75
39267;BME280;24967;51.154;13.812;2023-03-01T11:47:19;100590.44;;;5.83;53.36
39267;BME280;24967;51.154;13.812;2023-03-01T12:04:03;100558.25;;;5.63;52.49
39267;BME280;24967;51.154;13.812;2023-03-01T12:06:50;100567.81;;;5.50;51.13
39267;BME280;24967;51.154;13.812;2023-03-01T12:09:37;100559.34;;;5.59;51.48
39267;BME280;24967;51.154;13.812;2023-03-01T12:12:26;100553.03;;;5.76;52.38
39267;BME280;24967;51.154;13.812;2023-03-01T12:15:04;100556.16;;;5.97;52.11
39267;BME280;24967;51.154;13.812;2023-03-01T12:17:54;100549.66;;;5.88;51.62
39267;BME280;24967;51.154;13.812;2023-03-01T12:20:28;100537.31;;;6.03;51.42
39267;BME280;24967;51.154;13.812;2023-03-01T12:26:09;100545.22;;;5.74;49.85
39267;BME280;24967;51.154;13.812;2023-03-01T12:28:57;100544.09;;;5.64;51.40
39267;BME280;24967;51.154;13.812;2023-03-01T12:32:15;100530.97;;;5.77;52.32
39267;BME280;24967;51.154;13.812;2023-03-01T12:35:36;100522.63;;;5.99;51.35
39267;BME280;24967;51.154;13.812;2023-03-01T12:48:40;100509.69;;;6.36;51.54
39267;BME280;24967;51.154;13.812;2023-03-01T12:51:14;100491.63;;;6.42;49.68
39267;BME280;24967;51.154;13.812;2023-03-01T12:53:45;100501.66;;;6.37;50.33
39267;BME280;24967;51.154;13.812;2023-03-01T12:56:17;100499.22;;;6.34;51.43
39267;BME280;24967;51.154;13.812;2023-03-01T12:58:53;100498.13;;;6.51;50.94
39267;BME280;24967;51.154;13.812;2023-03-01T13:01:33;100503.28;;;6.53;49.53
39267;BME280;24967;51.154;13.812;2023-03-01T13:04:18;100499.50;;;6.57;50.17
39267;BME280;24967;51.154;13.812;2023-03-01T13:06:58;100494.47;;;6.67;50.10
39267;BME280;24967;51.154;13.812;2023-03-01T13:09:34;100490.19;;;6.51;50.17
39267;BME280;24967;51.154;13.812;2023-03-01T13:15:27;100498.16;;;6.64;49.87
39267;BME280;24967;51.154;13.812;2023-03-01T13:21:39;100499.94;;;6.63;49.15
39267;BME280;24967;51.154;13.812;2023-03-01T13:24:26;100497.44;;;6.75;48.63
39267;BME280;24967;51.154;13.812;2023-03-01T13:27:11;100500.59;;;6.67;49.31
39267;BME280;24967;51.154;13.812;2023-03-01T13:29:49;100487.47;;;6.65;48.92
39267;BME280;24967;51.154;13.812;2023-03-01T13:32:22;100486.34;;;6.42;48.01
39267;BME280;24967;51.154;13.812;2023-03-01T13:34:57;100477.13;;;6.75;48.40
39267;BME280;24967;51.154;13.812;2023-03-01T13:37:37;100475.00;;;6.68;48.78
39267;BME280;24967;51.154;13.812;2023-03-01T13:43:30;100475.97;;;7.05;48.95